createdAt,value
2017-12-21T00:00:45.371Z,14.07
2017-12-21T00:03:13.736Z,15.35
2017-12-21T00:05:42.059Z,14.70
2017-12-21T00:08:10.410Z,14.70
2017-12-21T00:10:38.747Z,14.80
2017-12-21T00:13:07.102Z,15.25
2017-12-21T00:15:35.434Z,15.13
2017-12-21T00:18:03.792Z,15.63
2017-12-21T00:20:32.122Z,16.50
2017-12-21T00:23:00.474Z,17.80
2017-12-21T00:25:28.805Z,17.80
2017-12-21T00:27:57.162Z,18.00
2017-12-21T00:30:25.622Z,17.35
2017-12-21T00:32:53.978Z,16.42
2017-12-21T00:35:22.313Z,18.80
2017-12-21T00:37:50.670Z,17.70
2017-12-21T00:40:19.014Z,17.40
2017-12-21T00:42:47.367Z,17.43
2017-12-21T00:45:15.698Z,18.40
2017-12-21T00:47:44.054Z,18.80
2017-12-21T00:50:12.385Z,16.05
2017-12-21T00:52:40.746Z,16.67
2017-12-21T00:55:09.073Z,17.20
2017-12-21T00:57:37.427Z,17.00
2017-12-21T01:00:05.758Z,16.73
2017-12-21T01:02:34.141Z,15.47
2017-12-21T01:05:02.475Z,18.70
2017-12-21T01:07:30.807Z,18.12
2017-12-21T01:09:59.191Z,19.10
2017-12-21T01:12:27.527Z,17.42
2017-12-21T01:14:55.880Z,17.15
2017-12-21T01:17:24.226Z,16.98
2017-12-21T01:19:52.578Z,17.23
2017-12-21T01:22:20.929Z,16.15
2017-12-21T01:24:49.282Z,16.62
2017-12-21T01:27:17.613Z,16.30
2017-12-21T01:29:45.965Z,16.55
2017-12-21T01:32:14.299Z,16.00
2017-12-21T01:34:42.649Z,17.00
2017-12-21T01:37:11.002Z,16.48
2017-12-21T01:39:39.358Z,17.45
2017-12-21T01:42:07.691Z,14.73
2017-12-21T01:44:36.065Z,14.70
2017-12-21T01:47:04.390Z,13.52
2017-12-21T01:49:32.738Z,14.63
2017-12-21T01:52:01.076Z,16.05
2017-12-21T01:54:29.441Z,17.70
2017-12-21T01:56:57.775Z,13.90
2017-12-21T01:59:26.129Z,15.02
2017-12-21T02:01:54.454Z,16.12
2017-12-21T02:04:22.825Z,16.48
2017-12-21T02:06:51.159Z,16.10
2017-12-21T02:09:19.510Z,15.05
2017-12-21T02:11:47.837Z,15.70
2017-12-21T02:14:16.185Z,15.15
2017-12-21T02:16:44.521Z,15.82
2017-12-21T02:19:12.879Z,16.52
2017-12-21T02:21:41.206Z,18.35
2017-12-21T02:24:09.588Z,16.60
2017-12-21T02:26:37.919Z,15.80
2017-12-21T02:29:06.266Z,15.48
2017-12-21T02:31:34.604Z,17.10
2017-12-21T02:34:02.954Z,15.88
2017-12-21T02:36:31.298Z,15.60
2017-12-21T02:38:59.658Z,14.23
2017-12-21T02:41:27.990Z,16.67
2017-12-21T02:43:56.378Z,17.67
2017-12-21T02:46:24.717Z,14.73
2017-12-21T02:48:53.078Z,14.45
2017-12-21T02:51:21.419Z,14.27
2017-12-21T02:53:49.784Z,17.40
2017-12-21T02:56:18.113Z,16.10
2017-12-21T02:58:46.478Z,15.70
2017-12-21T03:01:14.811Z,16.37
2017-12-21T03:03:43.242Z,16.77
2017-12-21T03:06:11.593Z,16.95
2017-12-21T03:08:39.923Z,13.65
2017-12-21T03:11:08.273Z,14.87
2017-12-21T03:13:36.646Z,13.73
2017-12-21T03:16:04.998Z,13.82
2017-12-21T03:18:33.334Z,11.43
2017-12-21T03:21:01.682Z,11.57
2017-12-21T03:23:30.013Z,11.75
2017-12-21T03:25:58.372Z,12.63
2017-12-21T03:28:26.708Z,13.98
2017-12-21T03:30:55.065Z,14.75
2017-12-21T03:33:23.401Z,15.60
2017-12-21T03:35:51.750Z,14.18
2017-12-21T03:38:20.086Z,14.45
2017-12-21T03:40:48.435Z,15.20
2017-12-21T03:43:16.770Z,14.43
2017-12-21T03:45:45.126Z,14.10
2017-12-21T03:48:13.462Z,11.93
2017-12-21T03:50:41.827Z,14.90
2017-12-21T03:53:10.172Z,13.43
2017-12-21T03:55:38.527Z,14.73
2017-12-21T03:58:06.857Z,15.43
2017-12-21T04:00:35.205Z,14.55
2017-12-21T04:03:03.544Z,15.15
2017-12-21T04:05:31.902Z,14.45
2017-12-21T04:08:00.236Z,16.40
2017-12-21T04:10:28.586Z,15.43
2017-12-21T04:12:56.913Z,14.20
2017-12-21T04:15:25.266Z,13.07
2017-12-21T04:17:53.602Z,13.82
2017-12-21T04:20:21.950Z,13.05
2017-12-21T04:22:50.286Z,13.38
2017-12-21T04:25:18.646Z,13.85
2017-12-21T04:27:46.978Z,14.00
2017-12-21T04:30:15.357Z,13.90
2017-12-21T04:32:43.759Z,14.87
2017-12-21T04:35:12.442Z,14.98
2017-12-21T04:37:40.771Z,15.23
2017-12-21T04:40:09.132Z,17.30
2017-12-21T04:42:37.470Z,16.10
2017-12-21T04:45:05.821Z,15.10
2017-12-21T04:47:34.158Z,18.15
2017-12-21T04:50:02.514Z,19.15
2017-12-21T04:52:30.846Z,18.55
2017-12-21T04:54:59.202Z,19.20
2017-12-21T04:57:27.622Z,20.35
2017-12-21T04:59:55.931Z,19.23
2017-12-21T05:02:24.259Z,18.65
2017-12-21T05:04:52.618Z,18.42
2017-12-21T05:07:20.971Z,18.30
2017-12-21T05:09:49.355Z,20.92
2017-12-21T05:12:17.715Z,19.45
2017-12-21T05:14:46.047Z,18.48
2017-12-21T05:17:14.398Z,18.02
2017-12-21T05:19:42.740Z,18.58
2017-12-21T05:22:11.091Z,16.70
2017-12-21T05:24:39.425Z,17.10
2017-12-21T05:27:07.786Z,15.27
2017-12-21T05:29:36.118Z,17.50
2017-12-21T05:32:04.472Z,16.83
2017-12-21T05:34:32.806Z,18.12
2017-12-21T05:37:01.163Z,16.87
2017-12-21T05:39:29.504Z,17.23
2017-12-21T05:41:57.857Z,14.87
2017-12-21T05:44:26.190Z,16.50
2017-12-21T05:46:54.569Z,14.70
2017-12-21T05:49:22.901Z,15.55
2017-12-21T05:51:51.259Z,13.70
2017-12-21T05:54:19.590Z,13.15
2017-12-21T05:56:47.970Z,13.30
2017-12-21T05:59:16.318Z,14.07
2017-12-21T06:01:44.670Z,13.05
2017-12-21T06:04:13.030Z,13.27
2017-12-21T06:06:41.381Z,13.38
2017-12-21T06:09:09.720Z,12.25
2017-12-21T06:11:38.074Z,12.27
2017-12-21T06:14:06.406Z,12.80
2017-12-21T06:16:34.768Z,15.05
2017-12-21T06:19:03.095Z,11.70
2017-12-21T06:21:31.446Z,12.60
2017-12-21T06:23:59.784Z,10.13
2017-12-21T06:26:28.130Z,9.23
2017-12-21T06:28:56.467Z,11.10
2017-12-21T06:31:24.822Z,9.83
2017-12-21T06:33:53.154Z,8.82
2017-12-21T06:36:21.502Z,9.10
2017-12-21T06:38:49.835Z,9.45
2017-12-21T06:41:18.190Z,9.00
2017-12-21T06:43:46.518Z,11.13
2017-12-21T06:46:14.871Z,8.90
2017-12-21T06:48:43.193Z,8.43
2017-12-21T06:51:11.537Z,7.87
2017-12-21T06:53:39.862Z,8.33
2017-12-21T06:56:08.210Z,8.50
2017-12-21T06:58:36.542Z,9.50
2017-12-21T07:01:04.887Z,9.10
2017-12-21T07:03:33.221Z,9.10
2017-12-21T07:06:01.546Z,8.40
2017-12-21T07:08:29.894Z,9.47
2017-12-21T07:10:58.226Z,7.60
2017-12-21T07:13:26.574Z,7.37
2017-12-21T07:15:54.899Z,9.03
2017-12-21T07:18:23.258Z,8.90
2017-12-21T07:20:51.578Z,7.90
2017-12-21T07:23:19.926Z,7.03
2017-12-21T07:25:49.194Z,8.60
2017-12-21T07:28:17.539Z,8.67
2017-12-21T07:30:45.870Z,7.77
2017-12-21T07:33:14.223Z,6.43
2017-12-21T07:35:44.441Z,6.90
2017-12-21T07:38:12.787Z,7.90
2017-12-21T07:40:41.114Z,6.87
2017-12-21T07:43:09.466Z,6.95
2017-12-21T07:45:37.793Z,8.40
2017-12-21T07:48:06.211Z,7.80
2017-12-21T07:50:34.509Z,6.33
2017-12-21T07:53:02.869Z,6.62
2017-12-21T07:55:31.193Z,7.25
2017-12-21T07:57:59.548Z,7.17
2017-12-21T08:00:27.873Z,5.47
2017-12-21T08:02:56.246Z,6.85
2017-12-21T08:05:24.574Z,7.20
2017-12-21T08:07:52.927Z,7.05
2017-12-21T08:10:21.259Z,6.50
2017-12-21T08:12:49.610Z,7.20
2017-12-21T08:15:18.962Z,7.50
2017-12-21T08:17:48.114Z,6.50
2017-12-21T08:20:16.453Z,6.63
2017-12-21T08:22:44.798Z,7.70
2017-12-21T08:25:13.125Z,6.03
2017-12-21T08:27:41.486Z,7.47
2017-12-21T08:30:10.140Z,8.07
2017-12-21T08:32:38.486Z,8.17
2017-12-21T08:35:06.881Z,7.93
2017-12-21T08:37:35.229Z,6.75
2017-12-21T08:40:03.558Z,7.23
2017-12-21T08:42:31.906Z,7.17
2017-12-21T08:45:00.235Z,8.47
2017-12-21T08:47:28.586Z,7.25
2017-12-21T08:49:56.910Z,6.80
2017-12-21T08:52:25.261Z,8.23
2017-12-21T08:54:53.911Z,8.27
2017-12-21T08:57:22.262Z,7.53
2017-12-21T08:59:50.599Z,8.23
2017-12-21T09:02:18.963Z,8.77
2017-12-21T09:04:47.290Z,8.68
2017-12-21T09:07:15.652Z,10.53
2017-12-21T09:09:43.984Z,9.57
2017-12-21T09:12:12.324Z,10.80
2017-12-21T09:14:40.683Z,10.00
2017-12-21T09:17:09.017Z,9.20
2017-12-21T09:19:37.379Z,8.50
2017-12-21T09:22:05.815Z,10.67
2017-12-21T09:24:34.175Z,9.80
2017-12-21T09:27:02.615Z,9.00
2017-12-21T09:29:31.119Z,10.63
2017-12-21T09:31:59.458Z,10.10
2017-12-21T09:34:28.025Z,9.53
2017-12-21T09:36:56.368Z,10.20
2017-12-21T09:39:24.834Z,9.80
2017-12-21T09:41:53.181Z,11.87
2017-12-21T09:46:56.258Z,9.07
2017-12-21T09:49:24.625Z,10.53
2017-12-21T09:51:52.959Z,9.20
2017-12-21T09:54:21.318Z,9.77
2017-12-21T09:56:49.654Z,9.47
2017-12-21T09:59:18.003Z,9.40
2017-12-21T10:01:46.339Z,9.88
2017-12-21T10:04:14.794Z,11.20
2017-12-21T10:06:43.215Z,10.57
2017-12-21T10:09:11.570Z,11.32
2017-12-21T10:11:39.922Z,11.27
2017-12-21T10:14:08.275Z,10.77
2017-12-21T10:16:36.610Z,12.10
2017-12-21T10:19:04.975Z,10.90
2017-12-21T10:21:33.431Z,10.70
2017-12-21T10:24:01.792Z,11.20
2017-12-21T10:26:30.314Z,12.47
2017-12-21T10:28:58.874Z,12.05
2017-12-21T10:31:27.370Z,12.20
2017-12-21T10:33:55.730Z,12.47
2017-12-21T10:36:24.187Z,12.97
2017-12-21T10:38:52.558Z,12.27
2017-12-21T10:41:20.948Z,12.70
2017-12-21T10:43:49.370Z,13.20
2017-12-21T10:46:17.704Z,12.50
2017-12-21T10:48:47.551Z,11.98
2017-12-21T10:51:16.042Z,11.40
2017-12-21T10:53:44.630Z,10.40
2017-12-21T10:56:13.263Z,8.70
2017-12-21T10:58:41.666Z,8.53
2017-12-21T11:01:10.289Z,8.80
2017-12-21T11:03:39.622Z,9.47
2017-12-21T11:06:08.011Z,10.10
2017-12-21T11:08:36.386Z,9.50
2017-12-21T11:11:05.282Z,8.73
2017-12-21T11:13:33.657Z,8.00
2017-12-21T11:16:02.034Z,8.45
2017-12-21T11:18:30.471Z,7.63
2017-12-21T11:20:58.799Z,9.13
2017-12-21T11:23:27.956Z,8.30
2017-12-21T11:25:56.900Z,8.00
2017-12-21T11:28:25.339Z,9.13
2017-12-21T11:30:53.691Z,8.05
2017-12-21T11:33:22.210Z,9.57
2017-12-21T11:35:51.507Z,7.18
2017-12-21T11:38:20.222Z,6.47
2017-12-21T11:40:48.777Z,7.40
2017-12-21T11:43:17.123Z,7.23
2017-12-21T11:45:45.475Z,6.30
2017-12-21T11:48:13.842Z,7.37
2017-12-21T11:50:42.230Z,7.53
2017-12-21T11:53:10.546Z,8.40
2017-12-21T11:55:38.894Z,8.87
2017-12-21T11:58:07.231Z,6.73
2017-12-21T12:00:35.907Z,6.00
2017-12-21T12:03:04.874Z,6.07
2017-12-21T12:05:34.554Z,7.63
2017-12-21T12:08:03.174Z,6.80
2017-12-21T12:10:32.940Z,5.87
2017-12-21T12:13:01.640Z,6.23
2017-12-21T12:15:32.624Z,5.95
2017-12-21T12:18:01.275Z,6.20
2017-12-21T12:20:29.908Z,6.68
2017-12-21T12:22:58.543Z,6.90
2017-12-21T12:25:28.140Z,6.50
2017-12-21T12:27:57.383Z,6.90
2017-12-21T12:30:25.973Z,6.57
2017-12-21T12:32:54.568Z,6.50
2017-12-21T12:35:23.182Z,5.87
2017-12-21T12:37:52.023Z,7.50
2017-12-21T12:40:20.519Z,6.93
2017-12-21T12:42:49.034Z,8.30
2017-12-21T12:45:18.215Z,7.63
2017-12-21T12:47:46.734Z,6.70
2017-12-21T12:50:15.423Z,7.20
2017-12-21T12:52:43.831Z,7.20
2017-12-21T12:55:12.324Z,7.87
2017-12-21T12:57:40.830Z,6.90
2017-12-21T13:00:09.796Z,7.43
2017-12-21T13:02:39.179Z,7.80
2017-12-21T13:05:08.501Z,6.68
2017-12-21T13:07:36.940Z,7.70
2017-12-21T13:10:05.366Z,7.80
2017-12-21T13:12:33.824Z,7.20
2017-12-21T13:15:02.322Z,7.13
2017-12-21T13:17:30.934Z,6.60
2017-12-21T13:19:59.557Z,7.33
2017-12-21T13:22:28.096Z,7.23
2017-12-21T13:24:56.720Z,7.90
2017-12-21T13:27:25.284Z,8.32
2017-12-21T13:29:53.876Z,6.87
2017-12-21T13:32:22.376Z,8.43
2017-12-21T13:34:50.883Z,9.63
2017-12-21T13:37:19.355Z,8.67
2017-12-21T13:39:47.927Z,7.45
2017-12-21T13:42:16.438Z,8.97
2017-12-21T13:44:44.763Z,8.88
2017-12-21T13:47:13.131Z,8.37
2017-12-21T13:49:41.574Z,8.18
2017-12-21T13:52:09.947Z,8.27
2017-12-21T13:54:38.424Z,10.17
2017-12-21T13:57:06.788Z,9.73
2017-12-21T13:59:35.163Z,8.98
2017-12-21T14:02:03.558Z,9.20
2017-12-21T14:04:33.542Z,7.60
2017-12-21T14:07:02.068Z,7.77
2017-12-21T14:09:30.520Z,7.80
2017-12-21T14:11:59.100Z,8.40
2017-12-21T14:14:27.604Z,9.00
2017-12-21T14:16:56.193Z,8.48
2017-12-21T14:19:24.811Z,7.93
2017-12-21T14:21:53.253Z,8.40
2017-12-21T14:24:21.696Z,9.13
2017-12-21T14:26:51.905Z,9.43
2017-12-21T14:29:21.061Z,8.97
2017-12-21T14:31:50.388Z,9.00
2017-12-21T14:34:18.850Z,7.47
2017-12-21T14:36:47.430Z,7.65
2017-12-21T14:39:15.943Z,7.80
2017-12-21T14:41:44.386Z,9.30
2017-12-21T14:44:13.809Z,8.40
2017-12-21T14:46:42.599Z,9.57
2017-12-21T14:49:11.274Z,9.45
2017-12-21T14:51:40.748Z,8.97
2017-12-21T14:54:10.621Z,8.70
2017-12-21T14:56:39.185Z,10.17
2017-12-21T14:59:08.608Z,9.97
2017-12-21T15:01:37.236Z,10.00
2017-12-21T15:04:06.710Z,10.57
2017-12-21T15:06:35.916Z,8.43
2017-12-21T15:09:04.417Z,11.35
2017-12-21T15:11:32.992Z,10.63
2017-12-21T15:14:01.573Z,10.53
2017-12-21T15:16:30.008Z,10.43
2017-12-21T15:18:58.355Z,10.03
2017-12-21T15:21:26.708Z,10.17
2017-12-21T15:23:55.035Z,10.40
2017-12-21T15:26:23.382Z,10.70
2017-12-21T15:28:51.784Z,10.57
2017-12-21T15:31:20.134Z,11.03
2017-12-21T15:33:48.458Z,11.60
2017-12-21T15:36:16.815Z,11.50
2017-12-21T15:38:45.145Z,11.27
2017-12-21T15:41:13.510Z,18.30
2017-12-21T15:43:41.914Z,19.97
2017-12-21T15:46:10.263Z,24.07
2017-12-21T15:48:38.601Z,12.32
2017-12-21T15:51:06.953Z,10.93
2017-12-21T15:53:35.740Z,11.18
2017-12-21T15:56:04.121Z,10.47
2017-12-21T15:58:32.446Z,11.53
2017-12-21T16:01:00.782Z,11.73
2017-12-21T16:03:29.139Z,12.37
2017-12-21T16:05:57.472Z,12.27
2017-12-21T16:08:25.822Z,13.00
2017-12-21T16:10:54.173Z,12.17
2017-12-21T16:13:22.526Z,22.27
2017-12-21T16:15:50.873Z,19.00
2017-12-21T16:18:19.247Z,17.63
2017-12-21T16:20:47.575Z,14.70
2017-12-21T16:23:15.976Z,15.45
2017-12-21T16:25:44.307Z,15.87
2017-12-21T16:28:12.663Z,15.35
2017-12-21T16:30:41.003Z,16.77
2017-12-21T16:33:09.353Z,15.17
2017-12-21T16:35:38.586Z,15.40
2017-12-21T16:38:06.934Z,15.37
2017-12-21T16:40:35.270Z,15.13
2017-12-21T16:43:03.640Z,17.83
2017-12-21T16:45:31.970Z,16.83
2017-12-21T16:48:00.334Z,17.50
2017-12-21T16:50:28.666Z,17.90
2017-12-21T16:52:57.670Z,15.45
2017-12-21T16:55:26.004Z,15.50
2017-12-21T16:57:54.365Z,16.97
2017-12-21T17:00:22.715Z,15.95
2017-12-21T17:02:51.067Z,16.85
2017-12-21T17:05:19.403Z,16.73
2017-12-21T17:07:47.763Z,17.17
2017-12-21T17:10:16.099Z,17.70
2017-12-21T17:12:45.478Z,18.33
2017-12-21T17:15:14.847Z,17.50
2017-12-21T17:17:43.182Z,17.20
2017-12-21T17:20:11.582Z,18.87
2017-12-21T17:22:39.927Z,18.00
2017-12-21T17:25:08.330Z,17.48
2017-12-21T17:27:36.678Z,20.93
2017-12-21T17:30:05.010Z,22.35
2017-12-21T17:32:33.382Z,21.33
2017-12-21T17:35:01.743Z,21.50
2017-12-21T17:37:30.096Z,27.13
2017-12-21T17:39:58.440Z,23.67
2017-12-21T17:42:26.818Z,20.70
2017-12-21T17:44:55.147Z,20.57
2017-12-21T17:47:23.536Z,19.60
2017-12-21T17:49:51.864Z,20.57
2017-12-21T17:52:20.235Z,18.93
2017-12-21T17:54:48.585Z,20.13
2017-12-21T17:57:16.942Z,18.60
2017-12-21T17:59:45.304Z,18.55
2017-12-21T18:02:13.630Z,18.83
2017-12-21T18:04:41.978Z,18.58
2017-12-21T18:07:10.306Z,17.73
2017-12-21T18:09:38.663Z,17.13
2017-12-21T18:12:07.011Z,18.00
2017-12-21T18:14:35.400Z,19.40
2017-12-21T18:17:03.724Z,19.12
2017-12-21T18:19:32.066Z,18.90
2017-12-21T18:22:00.402Z,19.80
2017-12-21T18:24:28.762Z,20.30
2017-12-21T18:26:57.099Z,28.45
2017-12-21T18:29:25.475Z,26.17
2017-12-21T18:31:53.865Z,26.80
2017-12-21T18:34:22.219Z,42.07
2017-12-21T18:36:50.552Z,28.90
2017-12-21T18:39:18.908Z,21.40
2017-12-21T18:41:47.233Z,18.85
2017-12-21T18:44:15.594Z,18.83
2017-12-21T18:46:43.929Z,18.20
2017-12-21T18:49:12.280Z,16.90
2017-12-21T18:51:40.616Z,16.00
2017-12-21T18:54:08.984Z,14.90
2017-12-21T18:56:37.340Z,13.13
2017-12-21T18:59:05.839Z,15.87
2017-12-21T19:01:34.172Z,17.05
2017-12-21T19:04:03.320Z,15.57
2017-12-21T19:06:32.638Z,16.30
2017-12-21T19:09:00.979Z,17.87
2017-12-21T19:11:29.315Z,15.73
2017-12-21T19:13:57.718Z,16.73
2017-12-21T19:16:26.096Z,17.63
2017-12-21T19:18:54.887Z,15.95
2017-12-21T19:21:23.227Z,16.90
2017-12-21T19:23:51.606Z,16.30
2017-12-21T19:26:20.814Z,17.03
2017-12-21T19:28:49.908Z,16.30
2017-12-21T19:31:18.242Z,16.27
2017-12-21T19:33:46.654Z,15.10
2017-12-21T19:36:14.981Z,15.43
2017-12-21T19:38:43.370Z,14.77
2017-12-21T19:41:11.765Z,14.90
2017-12-21T19:43:40.186Z,16.60
2017-12-21T19:46:08.506Z,16.17
2017-12-21T19:48:36.863Z,14.10
2017-12-21T19:51:05.211Z,15.60
2017-12-21T19:53:33.576Z,13.40
2017-12-21T19:56:02.906Z,16.77
2017-12-21T19:58:31.410Z,15.27
2017-12-21T20:00:59.747Z,17.23
2017-12-21T20:03:28.098Z,19.95
2017-12-21T20:05:56.425Z,16.70
2017-12-21T20:08:24.794Z,18.60
2017-12-21T20:10:53.167Z,17.60
2017-12-21T20:13:21.565Z,16.92
2017-12-21T20:15:49.907Z,17.43
2017-12-21T20:18:18.246Z,16.10
2017-12-21T20:20:46.650Z,16.75
2017-12-21T20:23:15.080Z,16.70
2017-12-21T20:25:43.450Z,16.25
2017-12-21T20:28:11.789Z,15.85
2017-12-21T20:30:40.131Z,18.70
2017-12-21T20:33:08.483Z,18.67
2017-12-21T20:35:36.918Z,15.48
2017-12-21T20:38:05.235Z,17.50
2017-12-21T20:40:33.626Z,15.87
2017-12-21T20:43:01.954Z,18.60
2017-12-21T20:45:30.310Z,17.93
2017-12-21T20:47:59.584Z,19.77
2017-12-21T20:50:27.930Z,19.07
2017-12-21T20:52:56.257Z,17.87
2017-12-21T20:55:24.607Z,18.97
2017-12-21T20:57:52.938Z,18.47
2017-12-21T21:00:21.283Z,18.65
2017-12-21T21:02:49.619Z,19.47
2017-12-21T21:05:17.971Z,16.63
2017-12-21T21:07:47.170Z,18.98
2017-12-21T21:10:15.518Z,19.17
2017-12-21T21:12:43.851Z,16.10
2017-12-21T21:15:12.511Z,15.60
2017-12-21T21:17:40.840Z,18.90
2017-12-21T21:20:09.190Z,18.23
2017-12-21T21:22:37.534Z,16.73
2017-12-21T21:25:05.882Z,17.67
2017-12-21T21:27:34.630Z,16.53
2017-12-21T21:30:02.986Z,16.50
2017-12-21T21:32:31.314Z,19.70
2017-12-21T21:34:59.750Z,17.63
2017-12-21T21:37:28.083Z,19.43
2017-12-21T21:39:56.426Z,15.70
2017-12-21T21:42:24.819Z,18.67
2017-12-21T21:44:53.150Z,17.13
2017-12-21T21:47:22.474Z,17.25
2017-12-21T21:49:50.822Z,17.37
2017-12-21T21:52:19.160Z,18.47
2017-12-21T21:54:47.513Z,18.13
2017-12-21T21:57:15.842Z,16.70
2017-12-21T21:59:44.186Z,18.27
2017-12-21T22:02:12.515Z,18.58
2017-12-21T22:04:40.862Z,15.90
2017-12-21T22:07:09.195Z,18.93
2017-12-21T22:09:37.567Z,21.12
2017-12-21T22:12:05.894Z,19.10
2017-12-21T22:14:34.218Z,20.25
2017-12-21T22:17:02.574Z,21.90
2017-12-21T22:19:30.898Z,20.05
2017-12-21T22:21:59.251Z,20.70
2017-12-21T22:24:27.574Z,19.70
2017-12-21T22:26:55.927Z,21.60
2017-12-21T22:29:24.258Z,18.65
2017-12-21T22:31:52.605Z,18.70
2017-12-21T22:34:20.943Z,21.47
2017-12-21T22:36:49.294Z,20.37
2017-12-21T22:39:17.627Z,19.30
2017-12-21T22:41:45.974Z,19.20
2017-12-21T22:44:14.306Z,17.43
2017-12-21T22:46:42.720Z,19.63
2017-12-21T22:49:11.031Z,16.83
2017-12-21T22:51:39.378Z,19.90
2017-12-21T22:54:07.706Z,18.58
2017-12-21T22:56:36.058Z,17.47
2017-12-21T22:59:04.390Z,17.67
2017-12-21T23:01:32.738Z,18.90
2017-12-21T23:04:01.075Z,18.30
2017-12-21T23:06:29.422Z,19.33
2017-12-21T23:08:57.749Z,17.73
2017-12-21T23:11:26.106Z,17.10
2017-12-21T23:13:54.431Z,20.13
2017-12-21T23:16:22.779Z,16.83
2017-12-21T23:18:51.107Z,18.20
2017-12-21T23:21:19.473Z,19.50
2017-12-21T23:23:47.799Z,18.60
2017-12-21T23:26:16.132Z,15.80
2017-12-21T23:28:44.478Z,17.30
2017-12-21T23:31:12.806Z,19.00
2017-12-21T23:33:41.154Z,19.48
2017-12-21T23:36:09.483Z,19.00
2017-12-21T23:38:37.838Z,15.98
2017-12-21T23:41:06.166Z,19.40
2017-12-21T23:43:34.782Z,16.45
2017-12-21T23:46:03.124Z,18.67
2017-12-21T23:48:31.474Z,18.30
2017-12-21T23:50:59.808Z,16.70
2017-12-21T23:53:28.158Z,18.50
2017-12-21T23:55:56.490Z,17.00
2017-12-21T23:58:24.843Z,16.77
